sensor_id;sensor_type;location;lat;lon;timestamp;P1;durP1;ratioP1;P2;durP2;ratioP2
69381;SDS011;56560;50.692;12.844;2023-05-16T00:00:06;22.17;;;11.68;;
69381;SDS011;56560;50.692;12.844;2023-05-16T00:02:33;22.00;;;10.90;;
69381;SDS011;56560;50.692;12.844;2023-05-16T00:05:01;22.17;;;10.88;;
69381;SDS011;56560;50.692;12.844;2023-05-16T00:07:29;21.85;;;11.23;;
69381;SDS011;56560;50.692;12.844;2023-05-16T00:09:55;20.92;;;10.93;;
69381;SDS011;56560;50.692;12.844;2023-05-16T00:12:21;20.48;;;10.80;;
69381;SDS011;56560;50.692;12.844;2023-05-16T00:14:47;22.83;;;11.50;;
69381;SDS011;56560;50.692;12.844;2023-05-16T00:17:14;22.63;;;10.90;;
69381;SDS011;56560;50.692;12.844;2023-05-16T00:19:41;20.45;;;10.80;;
69381;SDS011;56560;50.692;12.844;2023-05-16T00:22:08;22.17;;;11.05;;
69381;SDS011;56560;50.692;12.844;2023-05-16T00:24:35;24.17;;;11.20;;
69381;SDS011;56560;50.692;12.844;2023-05-16T00:27:01;21.80;;;11.70;;
69381;SDS011;56560;50.692;12.844;2023-05-16T00:29:28;22.10;;;11.93;;
69381;SDS011;56560;50.692;12.844;2023-05-16T00:31:56;20.88;;;11.02;;
69381;SDS011;56560;50.692;12.844;2023-05-16T00:34:22;20.10;;;11.30;;
69381;SDS011;56560;50.692;12.844;2023-05-16T00:36:51;24.73;;;11.10;;
69381;SDS011;56560;50.692;12.844;2023-05-16T00:39:17;22.23;;;11.13;;
69381;SDS011;56560;50.692;12.844;2023-05-16T00:41:43;22.23;;;11.23;;
69381;SDS011;56560;50.692;12.844;2023-05-16T00:44:09;24.05;;;11.77;;
69381;SDS011;56560;50.692;12.844;2023-05-16T00:46:35;24.00;;;10.93;;
69381;SDS011;56560;50.692;12.844;2023-05-16T00:49:01;20.33;;;10.43;;
69381;SDS011;56560;50.692;12.844;2023-05-16T00:51:27;21.15;;;10.60;;
69381;SDS011;56560;50.692;12.844;2023-05-16T00:53:53;20.47;;;10.17;;
69381;SDS011;56560;50.692;12.844;2023-05-16T00:56:20;22.80;;;10.55;;
69381;SDS011;56560;50.692;12.844;2023-05-16T00:58:46;21.38;;;11.23;;
69381;SDS011;56560;50.692;12.844;2023-05-16T01:01:12;21.17;;;11.00;;
69381;SDS011;56560;50.692;12.844;2023-05-16T01:03:38;21.13;;;11.32;;
69381;SDS011;56560;50.692;12.844;2023-05-16T01:06:04;22.80;;;12.18;;
69381;SDS011;56560;50.692;12.844;2023-05-16T01:08:30;22.42;;;11.07;;
69381;SDS011;56560;50.692;12.844;2023-05-16T01:10:59;22.58;;;11.18;;
69381;SDS011;56560;50.692;12.844;2023-05-16T01:13:32;22.45;;;10.27;;
69381;SDS011;56560;50.692;12.844;2023-05-16T01:16:21;20.65;;;10.73;;
69381;SDS011;56560;50.692;12.844;2023-05-16T01:18:55;21.67;;;11.02;;
69381;SDS011;56560;50.692;12.844;2023-05-16T01:24:32;18.65;;;9.27;;
69381;SDS011;56560;50.692;12.844;2023-05-16T01:26:59;20.77;;;10.43;;
69381;SDS011;56560;50.692;12.844;2023-05-16T01:29:25;21.50;;;9.88;;
69381;SDS011;56560;50.692;12.844;2023-05-16T01:31:50;22.00;;;11.18;;
69381;SDS011;56560;50.692;12.844;2023-05-16T01:34:16;22.47;;;11.60;;
69381;SDS011;56560;50.692;12.844;2023-05-16T01:36:56;20.40;;;10.27;;
69381;SDS011;56560;50.692;12.844;2023-05-16T01:42:14;22.02;;;11.27;;
69381;SDS011;56560;50.692;12.844;2023-05-16T01:44:49;20.88;;;10.98;;
69381;SDS011;56560;50.692;12.844;2023-05-16T01:47:20;21.50;;;11.00;;
69381;SDS011;56560;50.692;12.844;2023-05-16T01:52:39;20.63;;;9.93;;
69381;SDS011;56560;50.692;12.844;2023-05-16T01:55:10;23.63;;;11.77;;
69381;SDS011;56560;50.692;12.844;2023-05-16T01:57:41;21.77;;;11.15;;
69381;SDS011;56560;50.692;12.844;2023-05-16T02:00:07;25.08;;;12.55;;
69381;SDS011;56560;50.692;12.844;2023-05-16T02:02:33;22.15;;;11.57;;
69381;SDS011;56560;50.692;12.844;2023-05-16T02:04:59;21.30;;;11.48;;
69381;SDS011;56560;50.692;12.844;2023-05-16T02:07:25;24.67;;;12.43;;
69381;SDS011;56560;50.692;12.844;2023-05-16T02:09:51;23.58;;;11.50;;
69381;SDS011;56560;50.692;12.844;2023-05-16T02:12:17;22.07;;;11.50;;
69381;SDS011;56560;50.692;12.844;2023-05-16T02:14:43;21.40;;;11.55;;
69381;SDS011;56560;50.692;12.844;2023-05-16T02:17:09;22.27;;;12.10;;
69381;SDS011;56560;50.692;12.844;2023-05-16T02:19:34;24.85;;;12.55;;
69381;SDS011;56560;50.692;12.844;2023-05-16T02:22:00;23.37;;;12.17;;
69381;SDS011;56560;50.692;12.844;2023-05-16T02:24:26;23.42;;;11.95;;
69381;SDS011;56560;50.692;12.844;2023-05-16T02:26:51;22.50;;;11.87;;
69381;SDS011;56560;50.692;12.844;2023-05-16T02:29:17;22.70;;;11.10;;
69381;SDS011;56560;50.692;12.844;2023-05-16T02:31:43;23.10;;;11.40;;
69381;SDS011;56560;50.692;12.844;2023-05-16T02:34:08;22.73;;;11.23;;
69381;SDS011;56560;50.692;12.844;2023-05-16T02:36:34;22.77;;;11.65;;
69381;SDS011;56560;50.692;12.844;2023-05-16T02:39:00;23.40;;;11.07;;
69381;SDS011;56560;50.692;12.844;2023-05-16T02:41:28;22.00;;;11.43;;
69381;SDS011;56560;50.692;12.844;2023-05-16T02:43:53;22.73;;;10.45;;
69381;SDS011;56560;50.692;12.844;2023-05-16T02:46:26;22.17;;;11.13;;
69381;SDS011;56560;50.692;12.844;2023-05-16T02:48:57;23.73;;;11.02;;
69381;SDS011;56560;50.692;12.844;2023-05-16T02:51:23;23.33;;;12.05;;
69381;SDS011;56560;50.692;12.844;2023-05-16T02:53:50;24.58;;;12.02;;
69381;SDS011;56560;50.692;12.844;2023-05-16T02:56:16;23.25;;;12.57;;
69381;SDS011;56560;50.692;12.844;2023-05-16T02:58:45;23.77;;;11.50;;
69381;SDS011;56560;50.692;12.844;2023-05-16T03:01:12;23.98;;;11.25;;
69381;SDS011;56560;50.692;12.844;2023-05-16T03:03:39;25.73;;;12.07;;
69381;SDS011;56560;50.692;12.844;2023-05-16T03:06:04;23.00;;;11.80;;
69381;SDS011;56560;50.692;12.844;2023-05-16T03:08:31;21.90;;;11.45;;
69381;SDS011;56560;50.692;12.844;2023-05-16T03:10:57;23.80;;;12.32;;
69381;SDS011;56560;50.692;12.844;2023-05-16T03:13:23;24.13;;;11.50;;
69381;SDS011;56560;50.692;12.844;2023-05-16T03:15:48;23.45;;;11.70;;
69381;SDS011;56560;50.692;12.844;2023-05-16T03:18:14;23.98;;;12.23;;
69381;SDS011;56560;50.692;12.844;2023-05-16T03:20:40;22.58;;;11.32;;
69381;SDS011;56560;50.692;12.844;2023-05-16T03:23:06;23.60;;;12.00;;
69381;SDS011;56560;50.692;12.844;2023-05-16T03:25:35;22.17;;;11.75;;
69381;SDS011;56560;50.692;12.844;2023-05-16T03:28:02;22.88;;;12.18;;
69381;SDS011;56560;50.692;12.844;2023-05-16T03:30:29;26.88;;;12.30;;
69381;SDS011;56560;50.692;12.844;2023-05-16T03:32:54;22.17;;;11.67;;
69381;SDS011;56560;50.692;12.844;2023-05-16T03:35:20;21.27;;;11.23;;
69381;SDS011;56560;50.692;12.844;2023-05-16T03:37:47;23.42;;;12.35;;
69381;SDS011;56560;50.692;12.844;2023-05-16T03:40:12;23.08;;;12.68;;
69381;SDS011;56560;50.692;12.844;2023-05-16T03:42:38;25.60;;;12.10;;
69381;SDS011;56560;50.692;12.844;2023-05-16T03:45:04;21.85;;;11.55;;
69381;SDS011;56560;50.692;12.844;2023-05-16T03:47:30;27.80;;;12.07;;
69381;SDS011;56560;50.692;12.844;2023-05-16T03:49:56;25.57;;;12.60;;
69381;SDS011;56560;50.692;12.844;2023-05-16T03:52:22;24.30;;;12.30;;
69381;SDS011;56560;50.692;12.844;2023-05-16T03:54:47;24.33;;;12.37;;
69381;SDS011;56560;50.692;12.844;2023-05-16T03:57:13;23.42;;;11.77;;
69381;SDS011;56560;50.692;12.844;2023-05-16T03:59:39;21.77;;;11.60;;
69381;SDS011;56560;50.692;12.844;2023-05-16T04:02:05;21.08;;;11.68;;
69381;SDS011;56560;50.692;12.844;2023-05-16T04:04:30;22.67;;;11.98;;
69381;SDS011;56560;50.692;12.844;2023-05-16T04:06:56;25.33;;;12.18;;
69381;SDS011;56560;50.692;12.844;2023-05-16T04:09:22;25.80;;;14.63;;
69381;SDS011;56560;50.692;12.844;2023-05-16T04:11:47;25.70;;;13.15;;
69381;SDS011;56560;50.692;12.844;2023-05-16T04:14:21;22.98;;;12.85;;
69381;SDS011;56560;50.692;12.844;2023-05-16T04:16:48;25.10;;;12.55;;
69381;SDS011;56560;50.692;12.844;2023-05-16T04:19:13;23.92;;;12.27;;
69381;SDS011;56560;50.692;12.844;2023-05-16T04:21:39;23.08;;;12.10;;
69381;SDS011;56560;50.692;12.844;2023-05-16T04:24:05;24.33;;;12.10;;
69381;SDS011;56560;50.692;12.844;2023-05-16T04:26:31;22.35;;;11.45;;
69381;SDS011;56560;50.692;12.844;2023-05-16T04:28:57;22.90;;;11.48;;
69381;SDS011;56560;50.692;12.844;2023-05-16T04:31:24;20.52;;;11.30;;
69381;SDS011;56560;50.692;12.844;2023-05-16T04:33:50;20.95;;;11.65;;
69381;SDS011;56560;50.692;12.844;2023-05-16T04:36:16;24.30;;;11.90;;
69381;SDS011;56560;50.692;12.844;2023-05-16T04:38:41;21.60;;;11.02;;
69381;SDS011;56560;50.692;12.844;2023-05-16T04:41:07;20.90;;;11.00;;
69381;SDS011;56560;50.692;12.844;2023-05-16T04:43:33;22.60;;;11.32;;
69381;SDS011;56560;50.692;12.844;2023-05-16T04:45:59;21.70;;;10.10;;
69381;SDS011;56560;50.692;12.844;2023-05-16T04:48:25;21.65;;;11.43;;
69381;SDS011;56560;50.692;12.844;2023-05-16T04:50:51;21.55;;;10.73;;
69381;SDS011;56560;50.692;12.844;2023-05-16T04:53:16;20.37;;;10.60;;
69381;SDS011;56560;50.692;12.844;2023-05-16T04:55:42;21.15;;;11.05;;
69381;SDS011;56560;50.692;12.844;2023-05-16T04:58:08;21.35;;;10.52;;
69381;SDS011;56560;50.692;12.844;2023-05-16T05:00:34;21.27;;;10.97;;
69381;SDS011;56560;50.692;12.844;2023-05-16T05:03:00;20.40;;;10.57;;
69381;SDS011;56560;50.692;12.844;2023-05-16T05:05:25;24.57;;;11.60;;
69381;SDS011;56560;50.692;12.844;2023-05-16T05:07:51;23.30;;;11.02;;
69381;SDS011;56560;50.692;12.844;2023-05-16T05:10:18;23.00;;;10.77;;
69381;SDS011;56560;50.692;12.844;2023-05-16T05:12:43;23.52;;;11.40;;
69381;SDS011;56560;50.692;12.844;2023-05-16T05:15:09;22.83;;;11.10;;
69381;SDS011;56560;50.692;12.844;2023-05-16T05:17:34;22.20;;;11.13;;
69381;SDS011;56560;50.692;12.844;2023-05-16T05:20:01;27.05;;;10.48;;
69381;SDS011;56560;50.692;12.844;2023-05-16T05:22:30;23.63;;;11.40;;
69381;SDS011;56560;50.692;12.844;2023-05-16T05:24:56;24.15;;;11.95;;
69381;SDS011;56560;50.692;12.844;2023-05-16T05:27:22;24.43;;;11.80;;
69381;SDS011;56560;50.692;12.844;2023-05-16T05:29:47;23.63;;;12.48;;
69381;SDS011;56560;50.692;12.844;2023-05-16T05:32:13;23.07;;;11.70;;
69381;SDS011;56560;50.692;12.844;2023-05-16T05:34:39;25.35;;;12.15;;
69381;SDS011;56560;50.692;12.844;2023-05-16T05:37:04;23.67;;;12.20;;
69381;SDS011;56560;50.692;12.844;2023-05-16T05:39:30;22.83;;;12.35;;
69381;SDS011;56560;50.692;12.844;2023-05-16T05:41:55;28.57;;;12.70;;
69381;SDS011;56560;50.692;12.844;2023-05-16T05:44:22;23.98;;;12.27;;
69381;SDS011;56560;50.692;12.844;2023-05-16T05:46:48;23.93;;;12.30;;
69381;SDS011;56560;50.692;12.844;2023-05-16T05:49:13;26.23;;;12.80;;
69381;SDS011;56560;50.692;12.844;2023-05-16T05:51:39;25.13;;;13.02;;
69381;SDS011;56560;50.692;12.844;2023-05-16T05:54:05;26.73;;;13.27;;
69381;SDS011;56560;50.692;12.844;2023-05-16T05:56:31;24.58;;;13.07;;
69381;SDS011;56560;50.692;12.844;2023-05-16T05:58:57;28.17;;;14.70;;
69381;SDS011;56560;50.692;12.844;2023-05-16T06:01:22;27.07;;;13.47;;
69381;SDS011;56560;50.692;12.844;2023-05-16T06:03:48;27.20;;;14.10;;
69381;SDS011;56560;50.692;12.844;2023-05-16T06:06:14;27.63;;;14.90;;
69381;SDS011;56560;50.692;12.844;2023-05-16T06:08:41;31.33;;;14.68;;
69381;SDS011;56560;50.692;12.844;2023-05-16T06:11:07;29.15;;;14.80;;
69381;SDS011;56560;50.692;12.844;2023-05-16T06:13:33;29.73;;;15.60;;
69381;SDS011;56560;50.692;12.844;2023-05-16T06:15:58;30.95;;;15.48;;
69381;SDS011;56560;50.692;12.844;2023-05-16T06:18:24;31.33;;;15.88;;
69381;SDS011;56560;50.692;12.844;2023-05-16T06:20:51;32.22;;;17.27;;
69381;SDS011;56560;50.692;12.844;2023-05-16T06:23:17;33.75;;;17.23;;
69381;SDS011;56560;50.692;12.844;2023-05-16T06:25:44;39.95;;;17.70;;
69381;SDS011;56560;50.692;12.844;2023-05-16T06:28:09;33.67;;;17.17;;
69381;SDS011;56560;50.692;12.844;2023-05-16T06:30:35;37.17;;;18.55;;
69381;SDS011;56560;50.692;12.844;2023-05-16T06:33:01;37.60;;;19.15;;
69381;SDS011;56560;50.692;12.844;2023-05-16T06:35:26;37.87;;;19.17;;
69381;SDS011;56560;50.692;12.844;2023-05-16T06:37:52;37.65;;;18.85;;
69381;SDS011;56560;50.692;12.844;2023-05-16T06:40:18;37.83;;;19.87;;
69381;SDS011;56560;50.692;12.844;2023-05-16T06:42:43;39.13;;;20.52;;
69381;SDS011;56560;50.692;12.844;2023-05-16T06:45:09;39.25;;;19.98;;
69381;SDS011;56560;50.692;12.844;2023-05-16T06:47:35;39.78;;;20.25;;
69381;SDS011;56560;50.692;12.844;2023-05-16T06:50:00;38.03;;;19.53;;
69381;SDS011;56560;50.692;12.844;2023-05-16T06:52:26;38.95;;;19.98;;
69381;SDS011;56560;50.692;12.844;2023-05-16T06:54:52;38.67;;;19.50;;
69381;SDS011;56560;50.692;12.844;2023-05-16T06:57:17;48.97;;;19.30;;
69381;SDS011;56560;50.692;12.844;2023-05-16T06:59:43;37.23;;;19.03;;
69381;SDS011;56560;50.692;12.844;2023-05-16T07:02:09;35.27;;;18.27;;
69381;SDS011;56560;50.692;12.844;2023-05-16T07:04:34;39.53;;;20.17;;
69381;SDS011;56560;50.692;12.844;2023-05-16T07:07:02;37.85;;;18.50;;
69381;SDS011;56560;50.692;12.844;2023-05-16T07:09:28;37.83;;;20.05;;
69381;SDS011;56560;50.692;12.844;2023-05-16T07:11:54;40.20;;;19.20;;
69381;SDS011;56560;50.692;12.844;2023-05-16T07:14:19;36.10;;;17.47;;
69381;SDS011;56560;50.692;12.844;2023-05-16T07:16:45;58.65;;;26.00;;
69381;SDS011;56560;50.692;12.844;2023-05-16T07:19:10;36.83;;;18.30;;
69381;SDS011;56560;50.692;12.844;2023-05-16T07:21:36;34.92;;;17.05;;
69381;SDS011;56560;50.692;12.844;2023-05-16T07:24:02;31.80;;;16.50;;
69381;SDS011;56560;50.692;12.844;2023-05-16T07:26:27;34.33;;;15.60;;
69381;SDS011;56560;50.692;12.844;2023-05-16T07:28:53;32.67;;;16.00;;
69381;SDS011;56560;50.692;12.844;2023-05-16T07:31:19;34.80;;;16.65;;
69381;SDS011;56560;50.692;12.844;2023-05-16T07:33:45;37.73;;;16.70;;
69381;SDS011;56560;50.692;12.844;2023-05-16T07:36:11;31.52;;;16.25;;
69381;SDS011;56560;50.692;12.844;2023-05-16T07:38:37;32.97;;;15.55;;
69381;SDS011;56560;50.692;12.844;2023-05-16T07:41:06;32.58;;;15.52;;
69381;SDS011;56560;50.692;12.844;2023-05-16T07:43:31;33.67;;;15.20;;
69381;SDS011;56560;50.692;12.844;2023-05-16T07:45:59;34.58;;;16.27;;
69381;SDS011;56560;50.692;12.844;2023-05-16T07:48:25;31.23;;;15.55;;
69381;SDS011;56560;50.692;12.844;2023-05-16T07:50:51;33.37;;;16.00;;
69381;SDS011;56560;50.692;12.844;2023-05-16T07:53:17;34.95;;;15.23;;
69381;SDS011;56560;50.692;12.844;2023-05-16T07:55:43;32.85;;;15.23;;
69381;SDS011;56560;50.692;12.844;2023-05-16T07:58:09;34.23;;;16.10;;
69381;SDS011;56560;50.692;12.844;2023-05-16T08:00:34;31.52;;;15.60;;
69381;SDS011;56560;50.692;12.844;2023-05-16T08:03:00;33.20;;;15.70;;
69381;SDS011;56560;50.692;12.844;2023-05-16T08:05:26;28.67;;;14.25;;
69381;SDS011;56560;50.692;12.844;2023-05-16T08:07:51;33.17;;;14.57;;
69381;SDS011;56560;50.692;12.844;2023-05-16T08:10:17;29.60;;;14.40;;
69381;SDS011;56560;50.692;12.844;2023-05-16T08:12:43;28.97;;;13.40;;
69381;SDS011;56560;50.692;12.844;2023-05-16T08:15:08;30.70;;;14.98;;
69381;SDS011;56560;50.692;12.844;2023-05-16T08:17:35;34.67;;;15.77;;
69381;SDS011;56560;50.692;12.844;2023-05-16T08:20:01;31.25;;;14.75;;
69381;SDS011;56560;50.692;12.844;2023-05-16T08:22:27;30.70;;;13.30;;
69381;SDS011;56560;50.692;12.844;2023-05-16T08:24:52;31.10;;;14.57;;
69381;SDS011;56560;50.692;12.844;2023-05-16T08:27:21;32.85;;;15.35;;
69381;SDS011;56560;50.692;12.844;2023-05-16T08:29:47;32.72;;;15.25;;
69381;SDS011;56560;50.692;12.844;2023-05-16T08:32:13;31.07;;;14.20;;
69381;SDS011;56560;50.692;12.844;2023-05-16T08:34:39;30.70;;;14.40;;
69381;SDS011;56560;50.692;12.844;2023-05-16T08:37:04;36.83;;;16.40;;
69381;SDS011;56560;50.692;12.844;2023-05-16T08:39:30;34.72;;;15.88;;
69381;SDS011;56560;50.692;12.844;2023-05-16T08:41:56;35.70;;;15.97;;
69381;SDS011;56560;50.692;12.844;2023-05-16T08:44:22;39.60;;;17.20;;
69381;SDS011;56560;50.692;12.844;2023-05-16T08:46:52;36.75;;;16.77;;
69381;SDS011;56560;50.692;12.844;2023-05-16T08:49:19;35.58;;;17.08;;
69381;SDS011;56560;50.692;12.844;2023-05-16T08:51:45;38.87;;;17.03;;
69381;SDS011;56560;50.692;12.844;2023-05-16T08:54:12;36.00;;;17.20;;
69381;SDS011;56560;50.692;12.844;2023-05-16T08:56:42;41.25;;;18.83;;
69381;SDS011;56560;50.692;12.844;2023-05-16T08:59:09;38.83;;;18.40;;
69381;SDS011;56560;50.692;12.844;2023-05-16T09:01:36;39.78;;;19.00;;
69381;SDS011;56560;50.692;12.844;2023-05-16T09:04:02;37.47;;;17.17;;
69381;SDS011;56560;50.692;12.844;2023-05-16T09:06:29;39.95;;;17.95;;
69381;SDS011;56560;50.692;12.844;2023-05-16T09:08:55;37.20;;;18.17;;
69381;SDS011;56560;50.692;12.844;2023-05-16T09:11:21;36.63;;;18.27;;
69381;SDS011;56560;50.692;12.844;2023-05-16T09:13:47;37.67;;;18.45;;
69381;SDS011;56560;50.692;12.844;2023-05-16T09:16:14;33.72;;;15.93;;
69381;SDS011;56560;50.692;12.844;2023-05-16T09:18:42;38.78;;;18.42;;
69381;SDS011;56560;50.692;12.844;2023-05-16T09:21:09;35.47;;;17.20;;
69381;SDS011;56560;50.692;12.844;2023-05-16T09:23:35;34.88;;;17.17;;
69381;SDS011;56560;50.692;12.844;2023-05-16T09:26:04;39.63;;;18.10;;
69381;SDS011;56560;50.692;12.844;2023-05-16T09:28:32;36.35;;;18.02;;
69381;SDS011;56560;50.692;12.844;2023-05-16T09:30:58;34.08;;;16.50;;
69381;SDS011;56560;50.692;12.844;2023-05-16T09:33:28;33.83;;;16.75;;
69381;SDS011;56560;50.692;12.844;2023-05-16T09:35:58;34.50;;;16.60;;
69381;SDS011;56560;50.692;12.844;2023-05-16T09:38:25;33.58;;;16.83;;
69381;SDS011;56560;50.692;12.844;2023-05-16T09:40:52;33.67;;;16.15;;
69381;SDS011;56560;50.692;12.844;2023-05-16T09:43:21;33.05;;;16.00;;
69381;SDS011;56560;50.692;12.844;2023-05-16T09:45:51;32.17;;;15.90;;
69381;SDS011;56560;50.692;12.844;2023-05-16T09:48:19;36.40;;;15.88;;
69381;SDS011;56560;50.692;12.844;2023-05-16T09:50:46;31.08;;;15.55;;
69381;SDS011;56560;50.692;12.844;2023-05-16T09:53:16;31.05;;;15.48;;
69381;SDS011;56560;50.692;12.844;2023-05-16T09:55:48;30.48;;;15.63;;
69381;SDS011;56560;50.692;12.844;2023-05-16T09:58:28;30.90;;;15.57;;
69381;SDS011;56560;50.692;12.844;2023-05-16T10:00:55;30.02;;;16.05;;
69381;SDS011;56560;50.692;12.844;2023-05-16T10:03:22;33.17;;;15.90;;
69381;SDS011;56560;50.692;12.844;2023-05-16T10:05:48;35.42;;;16.02;;
69381;SDS011;56560;50.692;12.844;2023-05-16T10:08:14;34.20;;;17.02;;
69381;SDS011;56560;50.692;12.844;2023-05-16T10:10:40;36.08;;;17.52;;
69381;SDS011;56560;50.692;12.844;2023-05-16T10:13:06;34.93;;;16.97;;
69381;SDS011;56560;50.692;12.844;2023-05-16T10:15:35;34.53;;;16.60;;
69381;SDS011;56560;50.692;12.844;2023-05-16T10:18:02;37.15;;;18.17;;
69381;SDS011;56560;50.692;12.844;2023-05-16T10:20:29;35.05;;;16.17;;
69381;SDS011;56560;50.692;12.844;2023-05-16T10:22:55;36.47;;;17.58;;
69381;SDS011;56560;50.692;12.844;2023-05-16T10:25:31;34.60;;;16.70;;
69381;SDS011;56560;50.692;12.844;2023-05-16T10:28:00;39.92;;;17.30;;
69381;SDS011;56560;50.692;12.844;2023-05-16T10:30:28;32.55;;;15.65;;
69381;SDS011;56560;50.692;12.844;2023-05-16T10:32:53;35.20;;;16.58;;
69381;SDS011;56560;50.692;12.844;2023-05-16T10:35:21;34.25;;;16.45;;
69381;SDS011;56560;50.692;12.844;2023-05-16T10:37:47;34.17;;;16.40;;
69381;SDS011;56560;50.692;12.844;2023-05-16T10:40:15;33.10;;;16.20;;
69381;SDS011;56560;50.692;12.844;2023-05-16T10:42:58;34.70;;;16.67;;
69381;SDS011;56560;50.692;12.844;2023-05-16T10:45:25;35.92;;;16.50;;
69381;SDS011;56560;50.692;12.844;2023-05-16T10:47:51;32.10;;;15.73;;
69381;SDS011;56560;50.692;12.844;2023-05-16T11:01:19;26.33;;;13.57;;
69381;SDS011;56560;50.692;12.844;2023-05-16T11:11:43;21.00;;;11.13;;
69381;SDS011;56560;50.692;12.844;2023-05-16T11:14:17;24.05;;;11.25;;
69381;SDS011;56560;50.692;12.844;2023-05-16T11:16:51;21.08;;;11.40;;
69381;SDS011;56560;50.692;12.844;2023-05-16T11:19:27;24.65;;;12.07;;
69381;SDS011;56560;50.692;12.844;2023-05-16T11:27:20;19.42;;;9.85;;
69381;SDS011;56560;50.692;12.844;2023-05-16T11:29:48;19.40;;;10.57;;
69381;SDS011;56560;50.692;12.844;2023-05-16T11:32:16;22.58;;;11.30;;
69381;SDS011;56560;50.692;12.844;2023-05-16T11:34:45;16.58;;;9.35;;
69381;SDS011;56560;50.692;12.844;2023-05-16T11:37:12;21.80;;;10.10;;
69381;SDS011;56560;50.692;12.844;2023-05-16T11:39:41;18.15;;;8.90;;
69381;SDS011;56560;50.692;12.844;2023-05-16T11:42:07;18.45;;;9.23;;
69381;SDS011;56560;50.692;12.844;2023-05-16T11:44:33;15.73;;;8.60;;
69381;SDS011;56560;50.692;12.844;2023-05-16T11:46:59;16.52;;;8.90;;
69381;SDS011;56560;50.692;12.844;2023-05-16T11:49:28;15.48;;;7.82;;
69381;SDS011;56560;50.692;12.844;2023-05-16T11:51:57;19.00;;;9.43;;
69381;SDS011;56560;50.692;12.844;2023-05-16T11:54:23;16.60;;;8.90;;
69381;SDS011;56560;50.692;12.844;2023-05-16T11:56:49;17.95;;;8.60;;
69381;SDS011;56560;50.692;12.844;2023-05-16T11:59:18;15.93;;;7.43;;
69381;SDS011;56560;50.692;12.844;2023-05-16T12:01:47;15.77;;;7.18;;
69381;SDS011;56560;50.692;12.844;2023-05-16T12:04:14;15.38;;;6.65;;
69381;SDS011;56560;50.692;12.844;2023-05-16T12:06:41;13.20;;;6.00;;
69381;SDS011;56560;50.692;12.844;2023-05-16T12:09:11;14.15;;;6.07;;
69381;SDS011;56560;50.692;12.844;2023-05-16T12:11:39;15.70;;;5.30;;
69381;SDS011;56560;50.692;12.844;2023-05-16T12:14:06;11.85;;;5.60;;
69381;SDS011;56560;50.692;12.844;2023-05-16T12:16:33;12.00;;;5.53;;
69381;SDS011;56560;50.692;12.844;2023-05-16T12:19:01;11.65;;;5.15;;
69381;SDS011;56560;50.692;12.844;2023-05-16T12:21:28;12.55;;;5.55;;
69381;SDS011;56560;50.692;12.844;2023-05-16T12:23:55;12.43;;;5.50;;
69381;SDS011;56560;50.692;12.844;2023-05-16T12:26:29;12.25;;;5.47;;
69381;SDS011;56560;50.692;12.844;2023-05-16T12:28:57;14.52;;;5.40;;
69381;SDS011;56560;50.692;12.844;2023-05-16T12:31:30;13.18;;;5.60;;
69381;SDS011;56560;50.692;12.844;2023-05-16T12:34:00;14.18;;;5.50;;
69381;SDS011;56560;50.692;12.844;2023-05-16T12:36:29;12.27;;;4.93;;
69381;SDS011;56560;50.692;12.844;2023-05-16T12:38:59;15.35;;;5.50;;
69381;SDS011;56560;50.692;12.844;2023-05-16T12:41:26;10.35;;;4.90;;
69381;SDS011;56560;50.692;12.844;2023-05-16T12:43:51;13.93;;;5.40;;
69381;SDS011;56560;50.692;12.844;2023-05-16T12:46:48;11.93;;;5.85;;
69381;SDS011;56560;50.692;12.844;2023-05-16T12:49:18;17.67;;;6.15;;
69381;SDS011;56560;50.692;12.844;2023-05-16T12:51:47;14.20;;;6.10;;
69381;SDS011;56560;50.692;12.844;2023-05-16T12:54:17;12.90;;;6.28;;
69381;SDS011;56560;50.692;12.844;2023-05-16T12:56:43;16.25;;;6.70;;
69381;SDS011;56560;50.692;12.844;2023-05-16T12:59:09;15.65;;;6.50;;
69381;SDS011;56560;50.692;12.844;2023-05-16T13:01:36;13.27;;;6.67;;
69381;SDS011;56560;50.692;12.844;2023-05-16T13:04:02;13.85;;;7.45;;
69381;SDS011;56560;50.692;12.844;2023-05-16T13:06:29;15.90;;;7.68;;
69381;SDS011;56560;50.692;12.844;2023-05-16T13:08:55;14.88;;;6.60;;
69381;SDS011;56560;50.692;12.844;2023-05-16T13:11:21;15.32;;;7.35;;
69381;SDS011;56560;50.692;12.844;2023-05-16T13:13:46;12.88;;;5.47;;
69381;SDS011;56560;50.692;12.844;2023-05-16T13:16:12;13.30;;;6.23;;
69381;SDS011;56560;50.692;12.844;2023-05-16T13:18:37;13.70;;;6.53;;
69381;SDS011;56560;50.692;12.844;2023-05-16T13:21:03;13.13;;;6.07;;
69381;SDS011;56560;50.692;12.844;2023-05-16T13:23:29;12.88;;;6.80;;
69381;SDS011;56560;50.692;12.844;2023-05-16T13:25:55;13.67;;;6.80;;
69381;SDS011;56560;50.692;12.844;2023-05-16T13:28:21;16.10;;;6.95;;
69381;SDS011;56560;50.692;12.844;2023-05-16T13:30:46;12.53;;;6.00;;
69381;SDS011;56560;50.692;12.844;2023-05-16T13:33:12;13.30;;;5.45;;
69381;SDS011;56560;50.692;12.844;2023-05-16T13:35:37;14.00;;;6.07;;
69381;SDS011;56560;50.692;12.844;2023-05-16T13:38:03;12.90;;;5.78;;
69381;SDS011;56560;50.692;12.844;2023-05-16T13:40:29;14.80;;;6.03;;
69381;SDS011;56560;50.692;12.844;2023-05-16T13:42:54;13.48;;;6.15;;
69381;SDS011;56560;50.692;12.844;2023-05-16T13:45:21;13.65;;;5.85;;
69381;SDS011;56560;50.692;12.844;2023-05-16T13:47:47;12.45;;;5.82;;
69381;SDS011;56560;50.692;12.844;2023-05-16T13:50:12;14.10;;;6.50;;
69381;SDS011;56560;50.692;12.844;2023-05-16T13:52:38;16.97;;;6.40;;
69381;SDS011;56560;50.692;12.844;2023-05-16T13:55:04;13.75;;;6.22;;
69381;SDS011;56560;50.692;12.844;2023-05-16T13:57:31;14.70;;;6.47;;
69381;SDS011;56560;50.692;12.844;2023-05-16T13:59:57;15.93;;;6.60;;
69381;SDS011;56560;50.692;12.844;2023-05-16T14:02:23;15.43;;;6.60;;
69381;SDS011;56560;50.692;12.844;2023-05-16T14:04:52;18.85;;;7.15;;
69381;SDS011;56560;50.692;12.844;2023-05-16T14:07:18;16.48;;;7.30;;
69381;SDS011;56560;50.692;12.844;2023-05-16T14:09:43;16.37;;;8.00;;
69381;SDS011;56560;50.692;12.844;2023-05-16T14:12:09;14.90;;;7.13;;
69381;SDS011;56560;50.692;12.844;2023-05-16T14:14:35;14.57;;;7.30;;
69381;SDS011;56560;50.692;12.844;2023-05-16T14:17:01;14.52;;;6.72;;
69381;SDS011;56560;50.692;12.844;2023-05-16T14:19:28;14.40;;;6.90;;
69381;SDS011;56560;50.692;12.844;2023-05-16T14:21:54;14.57;;;6.43;;
69381;SDS011;56560;50.692;12.844;2023-05-16T14:24:20;17.60;;;7.10;;
69381;SDS011;56560;50.692;12.844;2023-05-16T14:26:45;17.15;;;6.97;;
69381;SDS011;56560;50.692;12.844;2023-05-16T14:29:11;14.00;;;6.57;;
69381;SDS011;56560;50.692;12.844;2023-05-16T14:31:37;14.05;;;6.43;;
69381;SDS011;56560;50.692;12.844;2023-05-16T14:34:03;16.75;;;6.55;;
69381;SDS011;56560;50.692;12.844;2023-05-16T14:36:29;15.87;;;6.30;;
69381;SDS011;56560;50.692;12.844;2023-05-16T14:38:55;16.45;;;7.22;;
69381;SDS011;56560;50.692;12.844;2023-05-16T14:41:22;17.77;;;6.97;;